createdAt,value
2023-01-29T00:02:25.506Z,26.03
2023-01-29T00:04:52.154Z,28.63
2023-01-29T00:07:21.680Z,26.87
2023-01-29T00:09:48.325Z,27.80
2023-01-29T00:12:14.934Z,29.40
2023-01-29T00:14:41.447Z,27.27
2023-01-29T00:17:08.011Z,28.50
2023-01-29T00:19:36.330Z,31.77
2023-01-29T00:22:02.855Z,30.90
2023-01-29T00:24:31.704Z,26.50
2023-01-29T00:27:00.476Z,29.50
2023-01-29T00:29:29.285Z,29.93
2023-01-29T00:31:56.013Z,26.83
2023-01-29T00:34:23.516Z,31.73
2023-01-29T00:36:52.459Z,27.40
2023-01-29T00:39:33.619Z,26.27
2023-01-29T00:42:25.215Z,27.77
2023-01-29T00:45:00.458Z,28.23
2023-01-29T00:47:36.464Z,24.63
2023-01-29T00:50:06.274Z,29.00
2023-01-29T00:52:32.995Z,27.47
2023-01-29T00:55:00.796Z,26.23
2023-01-29T00:57:31.912Z,28.47
2023-01-29T01:00:00.803Z,26.77
2023-01-29T01:02:46.330Z,23.57
2023-01-29T01:05:18.273Z,27.83
2023-01-29T01:07:50.160Z,24.27
2023-01-29T01:10:39.354Z,26.43
2023-01-29T01:13:07.752Z,24.03
2023-01-29T01:15:36.694Z,28.67
2023-01-29T01:18:04.082Z,25.20
2023-01-29T01:20:33.610Z,24.00
2023-01-29T01:23:00.225Z,22.57
2023-01-29T01:25:27.472Z,22.87
2023-01-29T01:27:55.688Z,23.13
2023-01-29T01:30:23.371Z,24.33
2023-01-29T01:32:52.478Z,30.50
2023-01-29T01:35:20.261Z,24.97
2023-01-29T01:37:46.791Z,28.03
2023-01-29T01:40:20.251Z,27.03
2023-01-29T01:42:56.460Z,25.77
2023-01-29T01:45:36.805Z,23.40
2023-01-29T01:48:19.571Z,26.90
2023-01-29T01:50:49.878Z,24.53
2023-01-29T01:53:26.662Z,24.07
2023-01-29T01:56:00.202Z,26.10
2023-01-29T01:58:59.428Z,27.67
2023-01-29T02:01:30.001Z,26.40
2023-01-29T02:04:26.573Z,28.40
2023-01-29T02:07:17.359Z,24.57
2023-01-29T02:10:12.467Z,25.30
2023-01-29T02:12:42.003Z,25.37
2023-01-29T02:15:11.043Z,25.37
2023-01-29T02:17:38.175Z,28.53
2023-01-29T02:20:19.872Z,25.53
2023-01-29T02:23:02.625Z,26.43
2023-01-29T02:25:55.939Z,25.57
2023-01-29T02:28:25.451Z,27.33
2023-01-29T02:31:08.618Z,28.23
2023-01-29T02:33:56.797Z,27.27
2023-01-29T02:36:32.911Z,26.23
2023-01-29T02:39:17.436Z,30.43
2023-01-29T02:41:55.339Z,22.43
2023-01-29T02:44:37.882Z,25.60
2023-01-29T02:47:17.110Z,28.73
2023-01-29T02:50:15.614Z,25.97
2023-01-29T02:52:56.903Z,28.67
2023-01-29T02:55:35.051Z,26.50
2023-01-29T02:58:16.130Z,29.67
2023-01-29T03:00:46.910Z,25.20
2023-01-29T03:03:18.837Z,32.93
2023-01-29T03:05:51.157Z,27.10
2023-01-29T03:08:36.806Z,25.20
2023-01-29T03:11:07.087Z,33.97
2023-01-29T03:13:59.897Z,28.17
2023-01-29T03:16:42.856Z,28.70
2023-01-29T03:19:17.298Z,30.20
2023-01-29T03:21:55.422Z,26.57
2023-01-29T03:25:12.877Z,30.70
2023-01-29T03:28:04.052Z,30.60
2023-01-29T03:30:52.728Z,27.30
2023-01-29T03:33:22.333Z,33.87
2023-01-29T03:36:25.058Z,28.73
2023-01-29T03:38:53.984Z,26.40
2023-01-29T03:41:28.339Z,31.00
2023-01-29T03:44:13.982Z,32.30
2023-01-29T03:47:13.728Z,31.37
2023-01-29T03:50:05.926Z,27.20
2023-01-29T03:52:42.863Z,32.40
2023-01-29T03:55:30.238Z,27.27
2023-01-29T03:58:20.224Z,28.93
2023-01-29T04:01:04.096Z,30.10
2023-01-29T04:03:37.549Z,31.43
2023-01-29T04:06:13.366Z,31.27
2023-01-29T04:09:03.499Z,32.03
2023-01-29T04:11:36.562Z,34.50
2023-01-29T04:14:06.821Z,30.53
2023-01-29T04:16:38.308Z,28.93
2023-01-29T04:19:06.010Z,28.97
2023-01-29T04:21:33.058Z,31.13
2023-01-29T04:23:59.758Z,29.60
2023-01-29T04:26:32.491Z,29.83
2023-01-29T04:29:06.525Z,29.20
2023-01-29T04:31:43.810Z,31.17
2023-01-29T04:34:23.291Z,33.10
2023-01-29T04:37:02.675Z,29.90
2023-01-29T04:39:43.765Z,32.67
2023-01-29T04:42:28.086Z,32.57
2023-01-29T04:45:03.722Z,32.43
2023-01-29T04:47:30.351Z,31.07
2023-01-29T04:50:22.431Z,31.47
2023-01-29T04:53:12.029Z,34.87
2023-01-29T04:55:51.883Z,34.60
2023-01-29T04:58:46.003Z,33.93
2023-01-29T05:01:18.553Z,33.97
2023-01-29T05:03:50.330Z,35.93
2023-01-29T05:06:19.075Z,35.17
2023-01-29T05:08:49.217Z,30.83
2023-01-29T05:11:19.371Z,31.97
2023-01-29T05:13:52.317Z,31.00
2023-01-29T05:16:23.927Z,34.03
2023-01-29T05:18:50.736Z,40.77
2023-01-29T05:21:17.342Z,33.60
2023-01-29T05:23:53.257Z,33.10
2023-01-29T05:26:39.971Z,32.50
2023-01-29T05:29:07.197Z,35.63
2023-01-29T05:31:38.429Z,36.33
2023-01-29T05:34:07.083Z,36.00
2023-01-29T05:36:33.629Z,33.30
2023-01-29T05:39:00.177Z,35.27
2023-01-29T05:41:26.864Z,35.70
2023-01-29T05:43:53.611Z,37.33
2023-01-29T05:46:22.546Z,34.70
2023-01-29T05:48:49.107Z,36.30
2023-01-29T05:51:15.643Z,37.00
2023-01-29T05:53:42.208Z,39.23
2023-01-29T05:56:08.965Z,34.40
2023-01-29T05:58:35.873Z,36.77
2023-01-29T06:01:12.332Z,42.03
2023-01-29T06:03:38.934Z,38.33
2023-01-29T06:06:05.684Z,39.00
2023-01-29T06:08:34.819Z,41.57
2023-01-29T06:11:01.428Z,39.57
2023-01-29T06:13:28.306Z,39.67
2023-01-29T06:15:54.887Z,36.03
2023-01-29T06:18:21.595Z,38.47
2023-01-29T06:20:50.382Z,36.23
2023-01-29T06:23:16.988Z,38.27
2023-01-29T06:25:43.581Z,39.87
2023-01-29T06:28:13.044Z,34.50
2023-01-29T06:30:39.654Z,36.73
2023-01-29T06:33:06.301Z,42.07
2023-01-29T06:35:32.873Z,35.93
2023-01-29T06:37:59.460Z,40.27
2023-01-29T06:40:26.104Z,38.57
2023-01-29T06:42:52.778Z,36.37
2023-01-29T06:45:19.442Z,38.47
2023-01-29T06:47:46.034Z,37.63
2023-01-29T06:50:12.624Z,36.03
2023-01-29T06:52:39.191Z,31.33
2023-01-29T06:55:08.763Z,33.83
2023-01-29T06:57:35.807Z,36.00
2023-01-29T07:00:04.839Z,38.03
2023-01-29T07:02:31.462Z,34.40
2023-01-29T07:04:58.124Z,35.67
2023-01-29T07:07:27.026Z,41.10
2023-01-29T07:09:58.432Z,36.57
2023-01-29T07:12:24.973Z,34.80
2023-01-29T07:14:53.940Z,36.37
2023-01-29T07:17:21.286Z,33.30
2023-01-29T07:19:47.868Z,36.70
2023-01-29T07:22:14.760Z,37.37
2023-01-29T07:24:43.938Z,36.50
2023-01-29T07:27:10.575Z,33.17
2023-01-29T07:29:37.137Z,35.13
2023-01-29T07:32:03.903Z,35.03
2023-01-29T07:34:31.145Z,40.90
2023-01-29T07:36:57.737Z,37.27
2023-01-29T07:39:24.391Z,38.90
2023-01-29T07:41:51.005Z,36.57
2023-01-29T07:44:17.652Z,37.40
2023-01-29T07:46:44.347Z,34.37
2023-01-29T07:49:13.195Z,33.43
2023-01-29T07:51:39.714Z,33.87
2023-01-29T07:54:08.852Z,35.03
2023-01-29T07:56:35.425Z,34.20
2023-01-29T07:59:02.041Z,34.80
2023-01-29T08:01:31.013Z,33.50
2023-01-29T08:03:57.612Z,34.20
2023-01-29T08:06:24.315Z,34.97
2023-01-29T08:08:52.207Z,37.87
2023-01-29T08:11:21.412Z,34.30
2023-01-29T08:13:47.978Z,35.07
2023-01-29T08:16:14.672Z,31.20
2023-01-29T08:18:44.100Z,30.37
2023-01-29T08:21:12.265Z,34.83
2023-01-29T08:23:39.759Z,34.27
2023-01-29T08:26:08.564Z,35.43
2023-01-29T08:28:36.650Z,35.47
2023-01-29T08:31:03.247Z,35.40
2023-01-29T08:33:38.954Z,36.40
2023-01-29T08:36:06.320Z,31.23
2023-01-29T08:38:32.933Z,31.67
2023-01-29T08:40:59.470Z,32.80
2023-01-29T08:43:26.067Z,31.53
2023-01-29T08:45:52.765Z,33.80
2023-01-29T08:48:22.177Z,32.70
2023-01-29T08:50:48.788Z,34.67
2023-01-29T08:53:15.396Z,30.63
2023-01-29T08:55:42.178Z,33.87
2023-01-29T08:58:12.467Z,31.13
2023-01-29T09:00:39.363Z,30.27
2023-01-29T09:03:07.964Z,29.83
2023-01-29T09:05:35.681Z,30.33
2023-01-29T09:08:04.506Z,30.50
2023-01-29T09:10:33.810Z,27.57
2023-01-29T09:13:00.754Z,28.03
2023-01-29T09:15:27.999Z,33.42
2023-01-29T09:17:54.548Z,29.53
2023-01-29T09:20:23.946Z,30.53
2023-01-29T09:22:53.656Z,31.10
2023-01-29T09:25:20.713Z,29.87
2023-01-29T09:27:47.271Z,25.53
2023-01-29T09:30:16.768Z,28.53
2023-01-29T09:32:53.248Z,30.90
2023-01-29T09:35:24.330Z,25.73
2023-01-29T09:37:51.567Z,26.73
2023-01-29T09:40:30.117Z,26.40
2023-01-29T09:43:20.465Z,32.90
2023-01-29T09:46:15.196Z,27.13
2023-01-29T09:48:43.008Z,31.87
2023-01-29T09:51:23.825Z,28.73
2023-01-29T09:54:05.016Z,24.93
2023-01-29T09:56:32.175Z,26.90
2023-01-29T09:59:01.559Z,26.95
2023-01-29T10:01:37.829Z,30.85
2023-01-29T10:04:13.830Z,28.90
2023-01-29T10:06:50.711Z,25.07
2023-01-29T10:09:45.101Z,25.00
2023-01-29T10:12:41.367Z,26.73
2023-01-29T10:15:39.028Z,23.30
2023-01-29T10:18:30.491Z,26.60
2023-01-29T10:21:12.415Z,27.25
2023-01-29T10:23:44.197Z,24.70
2023-01-29T10:26:12.779Z,22.23
2023-01-29T10:28:46.291Z,24.75
2023-01-29T10:31:20.747Z,27.05
2023-01-29T10:34:43.038Z,26.45
2023-01-29T10:37:19.390Z,28.27
2023-01-29T10:39:46.282Z,26.57
2023-01-29T10:42:27.234Z,27.43
2023-01-29T10:45:12.411Z,26.13
2023-01-29T10:47:57.511Z,24.30
2023-01-29T10:50:50.906Z,24.53
2023-01-29T10:53:20.218Z,29.33
2023-01-29T10:55:56.047Z,26.58
2023-01-29T10:58:53.671Z,25.20
2023-01-29T11:01:20.482Z,24.93
2023-01-29T11:03:58.459Z,24.63
2023-01-29T11:06:30.513Z,30.45
2023-01-29T11:09:20.350Z,22.57
2023-01-29T11:12:17.794Z,25.07
2023-01-29T11:14:51.808Z,23.43
2023-01-29T11:17:21.567Z,25.00
2023-01-29T11:19:51.754Z,27.40
2023-01-29T11:22:29.369Z,24.80
2023-01-29T11:25:10.536Z,23.17
2023-01-29T11:27:46.399Z,25.20
2023-01-29T11:30:24.611Z,26.73
2023-01-29T11:33:00.637Z,23.60
2023-01-29T11:35:30.718Z,26.07
2023-01-29T11:38:18.606Z,27.87
2023-01-29T11:40:45.923Z,23.27
2023-01-29T11:43:19.935Z,25.70
2023-01-29T11:45:48.080Z,28.63
2023-01-29T11:48:26.601Z,26.98
2023-01-29T11:51:04.860Z,24.23
2023-01-29T11:53:42.264Z,25.07
2023-01-29T11:56:27.897Z,24.20
2023-01-29T11:58:57.779Z,26.80
2023-01-29T12:01:40.875Z,29.45
2023-01-29T12:04:24.716Z,27.30
2023-01-29T12:06:53.444Z,25.73
2023-01-29T12:09:24.343Z,25.33
2023-01-29T12:11:52.729Z,24.48
2023-01-29T12:14:30.219Z,23.90
2023-01-29T12:17:19.575Z,24.45
2023-01-29T12:20:02.117Z,22.20
2023-01-29T12:23:02.610Z,26.77
2023-01-29T12:25:45.935Z,27.65
2023-01-29T12:28:39.045Z,25.27
2023-01-29T12:31:23.931Z,25.20
2023-01-29T12:34:17.329Z,25.73
2023-01-29T12:36:59.470Z,28.13
2023-01-29T12:39:26.480Z,26.40
2023-01-29T12:42:13.991Z,27.90
2023-01-29T12:44:52.200Z,25.33
2023-01-29T12:47:31.959Z,29.50
2023-01-29T12:50:05.573Z,30.88
2023-01-29T12:52:45.093Z,32.80
2023-01-29T12:55:16.513Z,31.10
2023-01-29T12:57:59.334Z,26.60
2023-01-29T13:00:32.131Z,28.90
2023-01-29T13:03:03.918Z,28.67
2023-01-29T13:05:39.524Z,30.48
2023-01-29T13:08:16.393Z,36.13
2023-01-29T13:10:50.956Z,32.85
2023-01-29T13:13:36.228Z,27.33
2023-01-29T13:16:07.514Z,31.53
2023-01-29T13:18:40.092Z,32.08
2023-01-29T13:21:12.125Z,30.63
2023-01-29T13:23:44.126Z,29.10
2023-01-29T13:26:13.835Z,32.90
2023-01-29T13:28:44.696Z,32.38
2023-01-29T13:31:33.190Z,32.47
2023-01-29T13:34:15.090Z,32.57
2023-01-29T13:36:47.037Z,34.50
2023-01-29T13:39:28.764Z,33.80
2023-01-29T13:41:57.067Z,37.30
2023-01-29T13:44:32.746Z,34.95
2023-01-29T13:46:59.397Z,32.70
2023-01-29T13:49:33.505Z,37.70
2023-01-29T13:52:18.787Z,34.38
2023-01-29T13:55:05.190Z,38.00
2023-01-29T13:57:44.041Z,39.07
2023-01-29T14:00:24.352Z,35.20
2023-01-29T14:02:56.876Z,34.30
2023-01-29T14:05:31.936Z,30.97
2023-01-29T14:08:44.524Z,34.63
2023-01-29T14:11:16.978Z,35.03
2023-01-29T14:13:46.719Z,35.45
2023-01-29T14:16:13.290Z,35.60
2023-01-29T14:18:59.531Z,34.85
2023-01-29T14:21:31.955Z,37.13
2023-01-29T14:24:21.000Z,34.65
2023-01-29T14:26:51.650Z,35.53
2023-01-29T14:29:33.798Z,30.92
2023-01-29T14:32:07.690Z,35.63
2023-01-29T14:34:41.633Z,36.28
2023-01-29T14:37:17.316Z,35.70
2023-01-29T14:39:52.180Z,38.00
2023-01-29T14:42:22.296Z,35.70
2023-01-29T14:44:58.469Z,33.60
2023-01-29T14:47:28.122Z,31.35
2023-01-29T14:50:00.368Z,34.83
2023-01-29T14:52:33.382Z,35.40
2023-01-29T14:55:04.243Z,33.70
2023-01-29T14:57:31.775Z,32.90
2023-01-29T15:00:05.486Z,33.83
2023-01-29T15:02:42.112Z,34.05
2023-01-29T15:05:17.507Z,34.00
2023-01-29T15:08:19.381Z,34.00
2023-01-29T15:11:10.943Z,34.70
2023-01-29T15:13:57.887Z,29.27
2023-01-29T15:16:36.918Z,34.20
2023-01-29T15:19:29.083Z,35.22
2023-01-29T15:22:26.149Z,37.63
2023-01-29T15:25:12.862Z,33.88
2023-01-29T15:27:44.524Z,34.53
2023-01-29T15:30:21.972Z,33.53
2023-01-29T15:32:51.657Z,37.33
2023-01-29T15:35:29.223Z,34.40
2023-01-29T15:38:00.137Z,37.00
2023-01-29T15:40:27.742Z,33.93
2023-01-29T15:42:54.471Z,36.47
2023-01-29T15:45:22.816Z,32.60
2023-01-29T15:47:50.388Z,35.23
2023-01-29T15:50:19.763Z,34.70
2023-01-29T15:52:51.466Z,34.40
2023-01-29T15:55:20.899Z,32.23
2023-01-29T15:57:48.215Z,31.52
2023-01-29T16:00:27.700Z,29.80
2023-01-29T16:02:54.820Z,33.27
2023-01-29T16:05:27.292Z,32.53
2023-01-29T16:07:55.647Z,30.70
2023-01-29T16:10:30.613Z,29.87
2023-01-29T16:12:58.496Z,31.93
2023-01-29T16:15:37.197Z,31.70
2023-01-29T16:18:20.692Z,28.03
2023-01-29T16:20:52.223Z,33.00
2023-01-29T16:23:28.218Z,28.73
2023-01-29T16:26:05.892Z,30.47
2023-01-29T16:28:32.790Z,26.63
2023-01-29T16:31:03.865Z,25.33
2023-01-29T16:33:37.686Z,29.13
2023-01-29T16:36:12.876Z,29.23
2023-01-29T16:38:43.265Z,27.87
2023-01-29T16:41:12.759Z,23.00
2023-01-29T16:43:50.092Z,28.13
2023-01-29T16:46:19.864Z,26.23
2023-01-29T16:48:47.739Z,23.27
2023-01-29T16:51:38.620Z,25.63
2023-01-29T16:54:22.289Z,25.03
2023-01-29T16:56:56.172Z,26.73
2023-01-29T16:59:43.258Z,27.60
2023-01-29T17:02:28.567Z,25.27
2023-01-29T17:05:02.229Z,25.23
2023-01-29T17:07:29.689Z,21.80
2023-01-29T17:10:01.065Z,25.30
2023-01-29T17:12:29.440Z,24.57
2023-01-29T17:15:03.084Z,24.00
2023-01-29T17:17:32.453Z,24.97
2023-01-29T17:20:11.429Z,26.60
2023-01-29T17:22:38.083Z,23.07
2023-01-29T17:25:05.098Z,25.70
2023-01-29T17:27:31.978Z,23.83
2023-01-29T17:29:59.196Z,23.27
2023-01-29T17:32:44.155Z,24.13
2023-01-29T17:35:14.339Z,26.30
2023-01-29T17:37:41.124Z,24.87
2023-01-29T17:40:39.742Z,25.60
2023-01-29T17:43:07.561Z,27.13
2023-01-29T17:45:34.171Z,22.63
2023-01-29T17:48:00.806Z,31.00
2023-01-29T17:50:30.496Z,25.40
2023-01-29T17:52:57.261Z,25.03
2023-01-29T17:55:23.903Z,25.10
2023-01-29T17:57:50.457Z,24.30
2023-01-29T18:00:20.771Z,28.60
2023-01-29T18:02:49.584Z,26.33
2023-01-29T18:05:17.610Z,28.30
2023-01-29T18:07:46.608Z,30.00
2023-01-29T18:10:17.564Z,30.50
2023-01-29T18:12:44.507Z,27.50
2023-01-29T18:15:11.971Z,26.93
2023-01-29T18:17:39.715Z,28.47
2023-01-29T18:20:25.498Z,30.20
2023-01-29T18:22:52.570Z,31.37
2023-01-29T18:25:19.573Z,28.13
2023-01-29T18:27:46.441Z,26.17
2023-01-29T18:30:13.952Z,28.63
2023-01-29T18:32:40.910Z,29.03
2023-01-29T18:35:08.162Z,29.67
2023-01-29T18:37:35.263Z,30.57
2023-01-29T18:40:01.870Z,31.07
2023-01-29T18:42:31.822Z,29.20
2023-01-29T18:44:58.378Z,29.00
2023-01-29T18:47:25.771Z,26.90
2023-01-29T18:49:52.406Z,28.43
2023-01-29T18:52:18.997Z,32.57
2023-01-29T18:54:47.886Z,31.17
2023-01-29T18:58:28.042Z,29.40
2023-01-29T19:00:00.993Z,31.07
2023-01-29T19:02:30.240Z,33.87
2023-01-29T19:04:56.910Z,32.47
2023-01-29T19:07:23.543Z,34.47
2023-01-29T19:09:50.549Z,30.10
2023-01-29T19:12:17.528Z,31.10
2023-01-29T19:14:44.253Z,32.60
2023-01-29T19:17:10.887Z,30.97
2023-01-29T19:19:37.427Z,30.60
2023-01-29T19:22:04.023Z,34.30
2023-01-29T19:24:36.248Z,32.70
2023-01-29T19:27:06.677Z,31.27
2023-01-29T19:29:33.546Z,30.97
2023-01-29T19:32:00.161Z,32.23
2023-01-29T19:34:26.767Z,32.00
2023-01-29T19:36:53.324Z,34.13
2023-01-29T19:39:22.508Z,30.27
2023-01-29T19:41:51.535Z,32.97
2023-01-29T19:44:18.063Z,31.60
2023-01-29T19:46:46.846Z,29.30
2023-01-29T19:49:13.439Z,34.60
2023-01-29T19:51:40.959Z,30.87
2023-01-29T19:54:09.435Z,31.27
2023-01-29T19:56:36.415Z,34.33
2023-01-29T19:59:05.033Z,34.87
2023-01-29T20:01:34.224Z,34.07
2023-01-29T20:04:00.789Z,35.10
2023-01-29T20:06:31.000Z,32.37
2023-01-29T20:08:57.959Z,31.47
2023-01-29T20:11:25.439Z,31.23
2023-01-29T20:13:52.996Z,30.93
2023-01-29T20:16:23.450Z,31.30
2023-01-29T20:18:50.223Z,34.03
2023-01-29T20:21:22.086Z,31.90
2023-01-29T20:23:50.866Z,31.20
2023-01-29T20:26:18.439Z,33.77
2023-01-29T20:28:48.360Z,31.60
2023-01-29T20:31:15.543Z,32.77
2023-01-29T20:33:42.208Z,34.97
2023-01-29T20:36:10.774Z,37.33
2023-01-29T20:38:37.807Z,33.60
2023-01-29T20:41:07.819Z,36.23
2023-01-29T20:43:36.969Z,34.10
2023-01-29T20:46:04.159Z,35.37
2023-01-29T20:48:31.892Z,35.97
2023-01-29T20:51:07.989Z,36.13
2023-01-29T20:53:35.337Z,35.70
2023-01-29T20:56:04.164Z,35.83
2023-01-29T20:58:31.050Z,32.73
2023-01-29T21:00:58.032Z,35.60
2023-01-29T21:03:24.893Z,32.30
2023-01-29T21:05:52.348Z,37.85
2023-01-29T21:08:19.043Z,35.17
2023-01-29T21:10:45.824Z,37.50
2023-01-29T21:13:12.492Z,37.72
2023-01-29T21:15:39.099Z,33.63
2023-01-29T21:18:06.623Z,35.27
2023-01-29T21:20:35.528Z,40.17
2023-01-29T21:23:06.946Z,38.60
2023-01-29T21:25:36.138Z,39.07
2023-01-29T21:28:04.435Z,36.73
2023-01-29T21:30:31.222Z,39.20
2023-01-29T21:32:57.819Z,40.93
2023-01-29T21:35:24.396Z,40.70
2023-01-29T21:37:51.030Z,35.90
2023-01-29T21:40:18.271Z,37.58
2023-01-29T21:43:03.935Z,35.27
2023-01-29T21:45:34.733Z,34.00
2023-01-29T21:48:02.251Z,36.45
2023-01-29T21:50:31.280Z,40.47
2023-01-29T21:53:00.551Z,39.97
2023-01-29T21:55:27.142Z,36.10
2023-01-29T21:57:53.996Z,37.57
2023-01-29T22:00:20.708Z,39.40
2023-01-29T22:02:47.553Z,34.73
2023-01-29T22:05:19.185Z,36.17
2023-01-29T22:07:47.158Z,34.50
2023-01-29T22:10:14.349Z,34.57
2023-01-29T22:12:41.287Z,32.90
2023-01-29T22:15:08.615Z,40.80
2023-01-29T22:17:35.385Z,36.47
2023-01-29T22:20:02.321Z,38.13
2023-01-29T22:22:29.039Z,39.87
2023-01-29T22:24:57.651Z,37.75
2023-01-29T22:27:27.553Z,35.00
2023-01-29T22:29:56.220Z,35.80
2023-01-29T22:32:22.756Z,38.83
2023-01-29T22:34:51.695Z,35.13
2023-01-29T22:37:18.258Z,41.53
2023-01-29T22:39:44.846Z,38.87
2023-01-29T22:42:11.505Z,37.50
2023-01-29T22:44:38.115Z,36.77
2023-01-29T22:47:04.732Z,40.80
2023-01-29T22:49:31.553Z,37.67
2023-01-29T22:52:18.429Z,40.63
2023-01-29T22:54:44.988Z,41.67
2023-01-29T22:57:13.661Z,37.63
2023-01-29T22:59:42.748Z,35.47
2023-01-29T23:02:09.608Z,38.07
2023-01-29T23:04:36.293Z,39.17
2023-01-29T23:07:03.640Z,39.67
2023-01-29T23:09:30.215Z,42.30
2023-01-29T23:11:56.750Z,39.40
2023-01-29T23:14:25.629Z,42.35
2023-01-29T23:16:54.574Z,40.88
2023-01-29T23:19:21.250Z,37.28
2023-01-29T23:21:47.862Z,41.60
2023-01-29T23:24:16.948Z,36.38
2023-01-29T23:27:02.236Z,40.45
2023-01-29T23:29:28.849Z,41.58
2023-01-29T23:31:55.516Z,42.63
2023-01-29T23:34:22.179Z,37.45
2023-01-29T23:36:48.859Z,40.30
2023-01-29T23:39:15.532Z,45.60
2023-01-29T23:41:42.344Z,44.67
2023-01-29T23:44:09.017Z,41.00
2023-01-29T23:46:37.867Z,45.50
2023-01-29T23:49:04.483Z,45.85
2023-01-29T23:51:31.221Z,41.75
2023-01-29T23:53:57.959Z,38.33
2023-01-29T23:56:24.833Z,45.58
2023-01-29T23:58:56.009Z,43.72
